Time;durP1;ratioP1;P1;durP2;ratioP2;P2;SDS_P1;SDS_P2;PMS_P1;PMS_P2;Temp;Humidity;BMP_temperature;BMP_pressure;BME280_temperature;BME280_humidity;BME280_pressure;Samples;Min_cycle;Max_cycle;Signal;HPM_P1;HPM_P2
2020/12/12 00:00:11;;;;;;;24.05;7.00;;;;;;;5.53;79.10;101092.94;1675771;85;21447;-76
2020/12/12 00:02:43;;;;;;;14.30;6.35;;;;;;;5.53;79.10;101101.20;1675958;85;21428;-75
2020/12/12 00:05:17;;;;;;;18.67;7.40;;;;;;;5.54;79.07;101102.03;1668207;85;21204;-76
2020/12/12 00:07:50;;;;;;;;;;;;;;;5.53;78.89;101101.72;1673269;85;21222;-76
2020/12/12 00:10:26;;;;;;;21.48;8.00;;;;;;;5.51;78.72;101096.42;1659794;85;20214;-76
2020/12/12 00:12:57;;;;;;;17.00;7.65;;;;;;;5.45;78.74;101090.95;1664231;85;21224;-76
2020/12/12 00:15:30;;;;;;;22.03;7.33;;;;;;;5.42;78.88;101092.23;1655349;84;22239;-77
2020/12/12 00:18:03;;;;;;;19.60;6.42;;;;;;;5.41;78.78;101093.81;1662832;85;21341;-74
2020/12/12 00:20:37;;;;;;;21.20;7.00;;;;;;;5.38;78.87;101102.53;1670283;85;21845;-75
2020/12/12 00:23:10;;;;;;;15.88;6.53;;;;;;;5.38;78.92;101095.65;1661792;85;21226;-75
2020/12/12 00:25:47;;;;;;;27.70;9.00;;;;;;;5.38;78.93;101094.27;1679995;85;21233;-75
2020/12/12 00:28:19;;;;;;;22.15;6.78;;;;;;;5.40;78.89;101097.13;1659620;85;21194;-75
2020/12/12 00:30:51;;;;;;;31.00;8.25;;;;;;;5.41;78.83;101100.70;1665918;85;21368;-75
2020/12/12 00:33:24;;;;;;;18.02;6.83;;;;;;;5.38;78.79;101097.02;1671327;84;21902;-74
2020/12/12 00:35:57;;;;;;;17.90;6.50;;;;;;;5.39;78.79;101089.08;1660495;85;21343;-75
2020/12/12 00:38:30;;;;;;;21.35;8.88;;;;;;;5.39;78.63;101094.58;1667035;85;21224;-74
2020/12/12 00:41:05;;;;;;;24.77;7.45;;;;;;;5.37;78.67;101084.33;1675849;85;21899;-74
2020/12/12 00:43:38;;;;;;;21.68;6.97;;;;;;;5.34;78.70;101083.37;1661696;85;21831;-75
2020/12/12 00:46:10;;;;;;;23.80;7.08;;;;;;;5.31;78.68;101080.52;1671904;85;21218;-75
2020/12/12 00:48:43;;;;;;;14.00;6.40;;;;;;;5.28;78.71;101078.21;1657785;85;21220;-75
2020/12/12 00:51:16;;;;;;;19.98;7.53;;;;;;;5.29;78.83;101080.41;1656766;85;21353;-74
2020/12/12 00:53:49;;;;;;;21.10;7.30;;;;;;;5.31;78.84;101087.39;1673912;84;21369;-73
2020/12/12 00:56:22;;;;;;;16.50;6.83;;;;;;;5.28;79.03;101077.35;1659632;85;21474;-73
2020/12/12 00:58:55;;;;;;;21.20;6.00;;;;;;;5.31;79.22;101079.14;1651986;85;21224;-74
2020/12/12 01:01:28;;;;;;;21.42;7.90;;;;;;;5.36;79.19;101068.84;1645962;85;21399;-73
2020/12/12 01:04:00;;;;;;;25.23;7.73;;;;;;;5.37;79.35;101081.58;1661026;84;21228;-74
2020/12/12 01:06:33;;;;;;;21.45;7.08;;;;;;;5.38;79.61;101055.73;1673162;85;21851;-74
2020/12/12 01:09:05;;;;;;;20.20;7.00;;;;;;;5.37;79.68;101045.80;1673851;85;21368;-74
2020/12/12 01:11:38;;;;;;;20.12;7.45;;;;;;;5.34;79.79;101048.45;1653211;85;21224;-75
2020/12/12 01:14:11;;;;;;;21.20;6.92;;;;;;;5.35;79.93;101046.52;1663937;85;21326;-73
2020/12/12 01:16:44;;;;;;;22.75;7.83;;;;;;;5.33;80.02;101049.52;1660258;85;21249;-76
2020/12/12 01:19:16;;;;;;;23.55;7.58;;;;;;;5.33;80.14;101039.02;1669883;85;21748;-73
2020/12/12 01:21:49;;;;;;;25.05;8.08;;;;;;;5.35;80.33;101036.88;1653791;85;21360;-74
2020/12/12 01:24:22;;;;;;;35.15;8.70;;;;;;;5.37;80.38;101036.16;1673157;84;21317;-75
2020/12/12 01:26:54;;;;;;;24.47;8.15;;;;;;;5.40;80.50;101041.20;1653911;85;21858;-76
2020/12/12 01:29:27;;;;;;;25.13;8.67;;;;;;;5.41;80.63;101049.26;1659047;85;21724;-76
2020/12/12 01:31:59;;;;;;;25.82;8.58;;;;;;;5.37;80.82;101028.72;1663094;85;21360;-74
2020/12/12 01:34:32;;;;;;;22.50;7.57;;;;;;;5.39;81.01;101036.77;1649288;85;21352;-76
2020/12/12 01:37:05;;;;;;;25.63;8.37;;;;;;;5.42;81.11;101019.80;1650319;85;21249;-76
2020/12/12 01:39:38;;;;;;;26.27;8.58;;;;;;;5.43;81.27;101024.27;1660064;85;21712;-76
2020/12/12 01:42:10;;;;;;;21.12;6.80;;;;;;;5.40;81.55;101038.45;1667140;85;21414;-76
2020/12/12 01:44:43;;;;;;;22.05;7.33;;;;;;;5.36;81.65;101034.44;1661967;85;21866;-76
2020/12/12 01:47:16;;;;;;;17.05;6.95;;;;;;;5.33;81.71;101044.53;1654556;85;21898;-76
2020/12/12 01:49:50;;;;;;;29.20;8.38;;;;;;;5.31;81.88;101023.27;1659723;85;21272;-77
2020/12/12 01:52:23;;;;;;;25.48;8.68;;;;;;;5.31;81.96;101033.73;1648109;85;21242;-75
2020/12/12 01:54:56;;;;;;;16.93;6.70;;;;;;;5.27;81.90;101033.02;1665258;84;21348;-75
2020/12/12 01:57:28;;;;;;;26.52;8.70;;;;;;;5.28;81.94;101024.55;1674008;85;21431;-76
2020/12/12 02:00:01;;;;;;;21.45;7.97;;;;;;;5.30;82.08;101031.18;1660903;85;21265;-75
2020/12/12 02:02:34;;;;;;;20.83;7.70;;;;;;;5.29;82.11;101019.87;1651001;85;21218;-76
2020/12/12 02:05:07;;;;;;;19.87;7.80;;;;;;;5.27;82.10;101018.73;1655453;85;21217;-76
2020/12/12 02:07:39;;;;;;;19.70;8.07;;;;;;;5.28;82.17;101018.18;1649533;85;21250;-75
2020/12/12 02:10:12;;;;;;;27.62;9.83;;;;;;;5.29;82.21;101009.72;1653745;85;21842;-75
2020/12/12 02:12:44;;;;;;;18.73;6.80;;;;;;;5.27;82.14;101011.85;1670823;85;22276;-74
2020/12/12 02:15:18;;;;;;;17.67;7.70;;;;;;;5.28;82.26;101016.80;1674365;84;21356;-75
2020/12/12 02:17:50;;;;;;;21.37;8.20;;;;;;;5.25;82.22;101010.37;1666431;85;21225;-75
2020/12/12 02:20:23;;;;;;;24.40;8.55;;;;;;;5.20;82.25;101012.94;1675943;84;21309;-76
2020/12/12 02:22:57;;;;;;;32.13;9.17;;;;;;;5.15;82.46;101007.23;1677164;85;21451;-75
2020/12/12 02:25:29;;;;;;;30.62;9.43;;;;;;;5.15;82.57;101004.48;1656532;85;21660;-76
2020/12/12 02:28:03;;;;;;;25.15;7.95;;;;;;;5.15;82.63;101006.72;1663592;85;21313;-76
2020/12/12 02:30:35;;;;;;;18.67;7.47;;;;;;;5.16;82.60;101002.04;1671039;85;21233;-76
2020/12/12 02:33:08;;;;;;;20.53;9.20;;;;;;;5.18;82.85;100997.15;1660369;85;21338;-76
2020/12/12 02:35:41;;;;;;;26.15;8.90;;;;;;;5.20;83.01;100995.05;1672386;85;21776;-75
2020/12/12 02:38:13;;;;;;;17.57;7.23;;;;;;;5.21;83.08;100987.09;1664400;85;21865;-76
2020/12/12 02:40:46;;;;;;;25.37;7.77;;;;;;;5.19;83.15;100991.44;1682413;84;21371;-75
2020/12/12 02:43:19;;;;;;;22.27;8.50;;;;;;;5.14;83.24;100991.79;1660409;85;21355;-75
2020/12/12 02:45:52;;;;;;;37.08;10.70;;;;;;;5.08;83.60;100987.16;1673369;84;21874;-76
2020/12/12 02:48:25;;;;;;;32.00;10.03;;;;;;;5.06;83.80;100994.25;1666079;84;21815;-76
2020/12/12 02:50:58;;;;;;;27.58;9.45;;;;;;;5.07;83.77;100994.55;1657929;85;21370;-76
2020/12/12 02:53:30;;;;;;;25.43;9.47;;;;;;;5.10;83.87;100986.41;1667328;85;21197;-76
2020/12/12 02:56:03;;;;;;;19.50;7.90;;;;;;;5.11;83.90;100993.07;1674248;84;21879;-76
2020/12/12 02:58:36;;;;;;;28.27;9.27;;;;;;;5.08;83.90;100983.03;1654954;85;21640;-76
2020/12/12 03:01:10;;;;;;;29.50;8.20;;;;;;;5.05;83.91;100988.44;1653443;85;21206;-78
2020/12/12 03:03:44;;;;;;;22.93;9.90;;;;;;;5.05;83.96;100982.08;1673037;84;21693;-76
2020/12/12 03:06:16;;;;;;;32.75;10.28;;;;;;;5.07;84.17;100984.10;1674069;85;21390;-79
2020/12/12 03:08:49;;;;;;;26.37;8.55;;;;;;;5.08;84.17;100976.98;1667350;85;21380;-75
2020/12/12 03:11:21;;;;;;;33.08;10.30;;;;;;;5.09;84.14;100982.83;1658975;85;21200;-75
2020/12/12 03:13:55;;;;;;;26.45;10.10;;;;;;;5.13;83.93;100976.35;1664717;85;21875;-75
2020/12/12 03:16:28;;;;;;;40.83;10.50;;;;;;;5.13;83.94;100984.05;1677023;85;21461;-74
2020/12/12 03:19:01;;;;;;;26.37;9.80;;;;;;;5.14;83.88;100973.36;1675858;85;21852;-75
2020/12/12 03:21:35;;;;;;;22.17;9.43;;;;;;;5.11;83.76;100972.44;1679238;85;21242;-74
2020/12/12 03:24:07;;;;;;;23.55;9.10;;;;;;;5.12;83.81;100977.42;1672755;84;21385;-75
2020/12/12 03:26:40;;;;;;;25.17;10.25;;;;;;;5.12;83.90;100988.42;1664540;84;21354;-74
2020/12/12 03:29:12;;;;;;;29.85;11.10;;;;;;;5.11;83.96;100995.82;1652708;85;21470;-74
2020/12/12 03:31:45;;;;;;;26.77;9.93;;;;;;;5.08;83.92;100992.66;1674548;85;21221;-75
2020/12/12 03:34:18;;;;;;;31.35;10.05;;;;;;;5.05;83.99;100993.94;1649356;85;21269;-75
2020/12/12 03:36:51;;;;;;;27.10;12.07;;;;;;;5.04;84.16;100993.63;1659568;85;21713;-75
2020/12/12 03:39:23;;;;;;;23.80;9.30;;;;;;;5.04;84.29;101011.52;1660490;85;21369;-75
2020/12/12 03:41:56;;;;;;;28.43;9.90;;;;;;;5.02;84.44;100997.11;1671433;85;21376;-75
2020/12/12 03:44:29;;;;;;;25.12;9.83;;;;;;;5.03;84.60;100996.59;1655574;85;21285;-76
2020/12/12 03:47:01;;;;;;;33.93;10.50;;;;;;;5.06;84.65;100998.92;1654563;85;21349;-75
2020/12/12 03:49:34;;;;;;;32.05;9.55;;;;;;;5.07;84.69;100995.11;1663222;85;21233;-75
2020/12/12 03:52:06;;;;;;;25.20;9.70;;;;;;;5.06;84.64;100992.05;1660302;85;21347;-74
2020/12/12 03:54:39;;;;;;;30.17;10.00;;;;;;;5.05;84.66;100993.08;1646685;85;21213;-74
2020/12/12 03:57:12;;;;;;;20.10;7.90;;;;;;;5.05;84.67;100991.70;1655860;85;21288;-74
2020/12/12 03:59:45;;;;;;;27.42;10.45;;;;;;;5.03;84.76;100989.72;1654211;85;21430;-73
2020/12/12 04:02:18;;;;;;;25.97;10.40;;;;;;;4.98;84.92;100987.62;1667005;85;21375;-74
2020/12/12 04:04:51;;;;;;;28.13;9.87;;;;;;;4.95;85.03;100994.91;1668957;85;21839;-74
2020/12/12 04:07:24;;;;;;;25.17;9.85;;;;;;;4.95;85.21;100989.97;1679903;85;21233;-74
2020/12/12 04:09:57;;;;;;;23.50;10.13;;;;;;;4.96;85.36;100981.47;1669513;85;21442;-75
2020/12/12 04:12:30;;;;;;;19.75;8.00;;;;;;;4.96;85.45;100987.52;1663579;84;21361;-75
2020/12/12 04:15:03;;;;;;;27.17;9.13;;;;;;;4.96;85.68;100983.40;1671600;84;21261;-75
2020/12/12 04:17:36;;;;;;;17.32;7.95;;;;;;;4.96;85.86;100982.84;1676957;85;21439;-74
2020/12/12 04:20:08;;;;;;;18.60;8.33;;;;;;;4.91;85.96;100977.17;1669023;85;21394;-76
2020/12/12 04:22:41;;;;;;;23.33;8.83;;;;;;;4.90;86.18;100981.52;1669574;85;21407;-75
2020/12/12 04:25:14;;;;;;;18.45;7.08;;;;;;;4.90;86.29;100976.02;1657027;85;21407;-74
2020/12/12 04:27:47;;;;;;;15.30;6.97;;;;;;;4.91;86.40;100972.20;1675231;84;21368;-74
2020/12/12 04:30:19;;;;;;;15.97;6.73;;;;;;;4.96;86.54;100974.59;1676500;85;21761;-74
2020/12/12 04:32:52;;;;;;;22.23;7.30;;;;;;;4.96;86.50;100977.34;1652112;85;21313;-74
2020/12/12 04:35:25;;;;;;;13.75;7.15;;;;;;;4.93;86.55;100979.17;1662004;85;21253;-74
2020/12/12 04:37:57;;;;;;;13.20;6.10;;;;;;;4.89;86.64;100985.33;1656660;85;21391;-73
2020/12/12 04:40:32;;;;;;;19.53;7.33;;;;;;;4.82;86.70;100979.84;1672302;85;21357;-75
2020/12/12 04:43:04;;;;;;;14.93;6.33;;;;;;;4.79;86.92;100998.67;1656429;85;21403;-75
2020/12/12 04:45:37;;;;;;;13.70;7.42;;;;;;;4.78;87.23;100981.87;1665873;84;21358;-75
2020/12/12 04:48:10;;;;;;;16.05;9.40;;;;;;;4.80;87.42;100992.97;1647510;85;21210;-75
2020/12/12 04:50:43;;;;;;;16.90;8.10;;;;;;;4.80;87.50;100990.22;1668931;85;21214;-74
2020/12/12 04:53:20;;;;;;;13.62;7.22;;;;;;;4.86;87.58;100988.50;1669581;85;22127;-74
2020/12/12 04:55:56;;;;;;;23.12;7.78;;;;;;;4.86;87.58;100988.50;1646067;85;21681;-73
2020/12/12 04:58:29;;;;;;;23.70;8.05;;;;;;;4.90;87.53;101013.14;1656442;85;21198;-74
2020/12/12 05:01:02;;;;;;;13.30;6.10;;;;;;;4.90;87.45;101011.22;1657808;85;21250;-75
2020/12/12 05:03:35;;;;;;;12.07;6.03;;;;;;;4.92;87.47;101002.77;1654055;85;21732;-74
2020/12/12 05:06:08;;;;;;;13.22;5.62;;;;;;;4.94;87.36;101004.78;1650196;85;21364;-74
2020/12/12 05:08:40;;;;;;;13.80;6.47;;;;;;;4.91;87.23;101004.69;1649724;85;21225;-75
2020/12/12 05:11:16;;;;;;;21.35;7.50;;;;;;;4.87;87.20;100999.29;1670857;83;21954;-75
2020/12/12 05:13:49;;;;;;;13.58;5.60;;;;;;;4.87;87.32;100999.29;1670910;84;21414;-76
2020/12/12 05:16:23;;;;;;;12.67;5.93;;;;;;;4.89;87.40;101003.20;1697513;84;21257;-75
2020/12/12 05:18:56;;;;;;;14.47;6.67;;;;;;;4.91;87.44;101014.83;1681884;84;21237;-75
2020/12/12 05:21:28;;;;;;;11.53;5.57;;;;;;;4.92;87.36;101016.52;1683101;84;21344;-75
2020/12/12 05:24:06;;;;;;;14.47;5.73;;;;;;;4.90;87.37;101007.09;1682002;84;21827;-75
2020/12/12 05:26:39;;;;;;;22.23;5.17;;;;;;;4.90;87.29;101012.59;1677638;84;21379;-75
2020/12/12 05:29:14;;;;;;;13.78;5.42;;;;;;;4.89;87.28;101015.03;1683572;84;21835;-74
2020/12/12 05:31:46;;;;;;;13.78;5.05;;;;;;;4.90;87.28;101018.09;1689420;83;21880;-74
2020/12/12 05:34:19;;;;;;;11.13;5.80;;;;;;;4.95;87.36;101013.34;1696380;83;21356;-74
2020/12/12 05:36:53;;;;;;;14.27;5.23;;;;;;;4.99;87.33;101025.06;1684283;84;21496;-74
2020/12/12 05:39:26;;;;;;;14.57;6.10;;;;;;;4.99;87.13;101025.58;1680067;84;21345;-75
2020/12/12 05:41:59;;;;;;;7.83;4.27;;;;;;;4.97;86.94;101022.22;1675364;84;21346;-74
2020/12/12 05:44:33;;;;;;;11.97;4.20;;;;;;;4.95;86.99;101028.47;1670362;84;21258;-73
2020/12/12 05:47:05;;;;;;;8.50;3.90;;;;;;;4.91;86.93;101029.95;1664686;84;21187;-74
2020/12/12 05:49:38;;;;;;;10.70;4.33;;;;;;;4.87;86.92;101035.05;1685139;84;21372;-75
2020/12/12 05:52:11;;;;;;;14.83;4.87;;;;;;;4.82;86.78;101035.39;1688740;83;21466;-74
2020/12/12 05:54:45;;;;;;;13.50;5.03;;;;;;;4.81;86.85;101044.67;1692327;83;21174;-74
2020/12/12 05:57:17;;;;;;;8.75;4.50;;;;;;;4.83;86.86;101034.32;1688960;83;21427;-74
2020/12/12 05:59:53;;;;;;;8.68;3.98;;;;;;;4.85;86.85;101038.55;1689889;83;21404;-74
2020/12/12 06:02:26;;;;;;;11.08;4.60;;;;;;;4.82;86.63;101050.52;1688978;84;21859;-75
2020/12/12 06:04:59;;;;;;;9.10;4.22;;;;;;;4.78;86.58;101029.99;1699824;83;21734;-76
2020/12/12 06:07:33;;;;;;;8.27;4.50;;;;;;;4.79;86.64;101026.17;1706359;83;21367;-73
2020/12/12 06:10:07;;;;;;;9.55;3.65;;;;;;;4.81;86.62;101032.30;1688871;83;21328;-75
2020/12/12 06:12:39;;;;;;;8.18;3.65;;;;;;;4.81;86.57;101044.16;1683644;83;21335;-78
2020/12/12 06:15:12;;;;;;;7.07;3.80;;;;;;;4.78;86.37;101047.34;1687855;84;21352;-74
2020/12/12 06:18:04;;;;;;;12.05;4.92;;;;;;;4.72;86.29;101042.70;1701630;83;21921;-74
2020/12/12 06:20:39;;;;;;;11.37;5.17;;;;;;;4.74;86.40;101039.72;1694091;83;21850;-74
2020/12/12 06:23:13;;;;;;;11.18;4.85;;;;;;;4.73;86.38;101037.52;1645540;85;21279;-76
2020/12/12 06:25:46;;;;;;;11.03;4.33;;;;;;;4.72;86.25;101041.84;1646783;85;21337;-75
2020/12/12 06:28:26;;;;;;;9.30;4.53;;;;;;;4.71;86.22;101038.23;1625396;86;21785;-75
2020/12/12 06:30:59;;;;;;;9.20;4.62;;;;;;;4.71;86.05;101040.16;1670756;84;21424;-75
2020/12/12 06:33:34;;;;;;;7.97;4.20;;;;;;;4.66;86.08;101031.70;1689631;83;21225;-73
2020/12/12 06:36:25;;;;;;;9.68;4.28;;;;;;;4.66;86.08;101031.70;1671665;84;21335;-76
2020/12/12 06:39:23;;;;;;;15.63;4.97;;;;;;;4.64;86.09;101027.78;1663807;84;21200;-75
2020/12/12 06:41:58;;;;;;;10.47;4.70;;;;;;;4.63;86.07;101030.74;1625866;86;21271;-73
2020/12/12 06:44:37;;;;;;;10.80;4.47;;;;;;;4.62;86.02;101036.79;1683726;84;21233;-75
2020/12/12 06:47:10;;;;;;;14.23;4.63;;;;;;;4.59;85.92;101037.75;1676803;84;21242;-75
2020/12/12 06:50:01;;;;;;;10.63;5.28;;;;;;;4.59;85.98;101035.00;1665961;84;21342;-75
2020/12/12 06:52:36;;;;;;;8.48;4.92;;;;;;;4.56;85.95;101046.41;1661099;84;21396;-75
2020/12/12 06:55:19;;;;;;;12.50;6.20;;;;;;;4.51;85.81;101046.19;1682261;83;21269;-74
2020/12/12 06:58:04;;;;;;;15.28;6.58;;;;;;;4.49;85.93;101042.82;1685018;84;21264;-77
2020/12/12 07:00:39;;;;;;;13.63;6.63;;;;;;;4.55;86.07;101046.09;1653721;84;21220;-73
2020/12/12 07:03:40;;;;;;;14.28;7.05;;;;;;;4.61;86.17;101044.72;1687662;83;21229;-76
2020/12/12 07:06:16;;;;;;;12.13;6.20;;;;;;;4.69;86.03;101040.37;1661840;85;21941;-75
2020/12/12 07:09:07;;;;;;;15.50;6.73;;;;;;;4.67;85.50;101043.02;1638343;85;21316;-78
2020/12/12 07:11:49;;;;;;;13.43;6.80;;;;;;;4.63;85.35;101043.11;1634207;85;21363;-79
2020/12/12 07:14:26;;;;;;;16.52;6.92;;;;;;;4.65;85.33;101050.64;1672670;83;21305;-76
2020/12/12 07:17:01;;;;;;;13.08;6.65;;;;;;;4.65;85.21;101056.14;1683838;85;21416;-77
2020/12/12 07:19:40;;;;;;;14.33;5.50;;;;;;;4.66;85.02;101066.08;1678916;83;21372;-76
2020/12/12 07:22:17;;;;;;;9.43;5.08;;;;;;;4.65;84.90;101067.13;1697407;83;21351;-76
2020/12/12 07:24:50;;;;;;;9.68;5.40;;;;;;;4.58;84.86;101060.26;1686217;83;21386;-75
2020/12/12 07:27:23;;;;;;;18.10;6.83;;;;;;;4.56;84.90;101072.00;1703738;84;21422;-77
2020/12/12 07:29:58;;;;;;;21.83;7.50;;;;;;;4.53;84.91;101068.84;1695213;84;21261;-75
2020/12/12 07:32:32;;;;;;;21.23;7.75;;;;;;;4.53;85.04;101076.53;1706411;83;21214;-76
2020/12/12 07:35:14;;;;;;;19.85;7.47;;;;;;;4.53;84.85;101066.09;1700902;82;21379;-75
2020/12/12 07:38:08;;;;;;;13.83;6.97;;;;;;;4.52;84.88;101077.59;1695006;84;21226;-76
2020/12/12 07:41:07;;;;;;;15.93;8.47;;;;;;;4.52;84.73;101066.60;1665253;84;21431;-74
2020/12/12 07:44:08;;;;;;;14.55;6.67;;;;;;;4.49;84.74;101057.94;1708320;84;21214;-74
2020/12/12 07:47:09;;;;;;;16.00;6.97;;;;;;;4.47;84.73;101060.06;1688285;84;21193;-76
2020/12/12 07:49:49;;;;;;;16.23;7.27;;;;;;;4.45;84.75;101078.68;1677033;84;21438;-75
2020/12/12 07:52:22;;;;;;;12.50;7.20;;;;;;;4.44;84.72;101080.56;1674527;83;21350;-75
2020/12/12 07:55:03;;;;;;;12.90;6.33;;;;;;;4.43;84.70;101087.64;1641774;85;21340;-75
2020/12/12 07:58:09;;;;;;;15.47;6.30;;;;;;;4.39;84.65;101094.09;1672087;83;21391;-76
2020/12/12 08:01:02;;;;;;;10.43;5.37;;;;;;;4.38;84.72;101102.54;1642817;86;21408;-76
2020/12/12 08:03:48;;;;;;;20.73;9.33;;;;;;;4.41;84.87;101099.39;1674339;85;21407;-75
2020/12/12 08:10:36;;;;;;;15.33;6.50;;;;;;;4.40;85.00;101090.28;1670149;84;21225;-75
2020/12/12 08:14:05;;;;;;;11.63;5.50;;;;;;;4.37;85.22;101082.98;1566063;90;21274;-75
2020/12/12 08:17:39;;;;;;;13.97;7.07;;;;;;;4.42;85.42;101081.83;1484129;95;21494;-76
2020/12/12 08:23:18;;;;;;;11.77;5.70;;;;;;;4.44;85.60;101070.09;1465893;95;21241;-76
2020/12/12 08:26:09;;;;;;;13.43;6.20;;;;;;;4.45;85.68;101063.56;1493868;95;21301;-76
2020/12/12 08:29:00;;;;;;;15.60;6.23;;;;;;;4.45;85.79;101053.39;1495043;95;21366;-76
2020/12/12 08:31:58;;;;;;;16.40;6.30;;;;;;;4.46;85.96;101059.75;1508055;93;21270;-76
2020/12/12 08:34:44;;;;;;;10.73;5.30;;;;;;;4.46;85.96;101051.51;1488470;94;21258;-75
2020/12/12 08:37:20;;;;;;;10.23;5.00;;;;;;;4.48;85.99;101059.00;1469705;96;21701;-76
2020/12/12 08:40:01;;;;;;;11.90;5.53;;;;;;;4.50;86.05;101070.10;1466040;95;21306;-76
2020/12/12 08:43:09;;;;;;;11.53;5.17;;;;;;;4.51;86.00;101055.81;1423724;97;21655;-81
2020/12/12 08:46:01;;;;;;;8.23;4.60;;;;;;;4.53;86.12;101049.59;1424784;98;21287;-75
2020/12/12 08:48:39;;;;;;;16.07;5.90;;;;;;;4.55;86.01;101049.70;1428104;97;21367;-76
2020/12/12 08:51:42;;;;;;;13.00;5.87;;;;;;;4.55;85.97;101046.09;1441573;97;22366;-77
2020/12/12 08:54:34;;;;;;;16.42;5.80;;;;;;;4.53;86.04;101039.97;1437301;93;21846;-75
2020/12/12 08:57:14;;;;;;;13.50;5.37;;;;;;;4.54;86.17;101043.03;1524567;91;21250;-75
2020/12/12 08:59:47;;;;;;;14.07;6.40;;;;;;;4.55;86.12;101024.96;1535394;91;21309;-75
2020/12/12 09:02:26;;;;;;;11.57;5.47;;;;;;;4.55;86.07;101032.34;1533151;92;21261;-76
2020/12/12 09:05:11;;;;;;;11.90;5.67;;;;;;;4.57;86.21;101028.84;1588405;88;21289;-75
2020/12/12 09:07:46;;;;;;;16.77;7.43;;;;;;;4.63;86.24;101023.87;1617090;87;21367;-76
2020/12/12 09:10:48;;;;;;;14.63;7.37;;;;;;;4.66;86.19;101022.08;1589095;88;21239;-75
2020/12/12 09:13:49;;;;;;;15.80;7.10;;;;;;;4.66;86.10;101020.70;1577259;88;21763;-76
2020/12/12 09:16:30;;;;;;;17.27;7.80;;;;;;;4.67;86.06;101009.50;1586253;88;21273;-76
2020/12/12 09:19:05;;;;;;;26.53;9.30;;;;;;;4.64;86.06;101019.54;1606662;86;21285;-77
2020/12/12 09:21:46;;;;;;;16.80;8.13;;;;;;;4.61;85.98;101018.61;1617358;87;21233;-79
2020/12/12 09:24:24;;;;;;;17.83;8.53;;;;;;;4.58;85.89;101020.39;1572700;88;21254;-78
2020/12/12 09:26:58;;;;;;;18.80;9.00;;;;;;;4.54;85.95;101022.42;1568814;90;21320;-79
2020/12/12 09:29:45;;;;;;;20.40;9.43;;;;;;;4.53;86.00;101012.48;1580167;88;21261;-78
2020/12/12 09:32:58;;;;;;;16.13;8.80;;;;;;;4.51;86.18;101002.21;1579065;89;21260;-80
2020/12/12 09:36:15;;;;;;;17.85;8.05;;;;;;;4.46;86.16;101017.98;1601008;88;21775;-78
2020/12/12 09:39:28;;;;;;;25.80;11.00;;;;;;;4.48;86.41;101030.14;1513723;91;21331;-78
2020/12/12 09:41:58;;;;;;;25.33;10.70;;;;;;;4.56;86.53;101035.41;1513008;92;21461;-78
2020/12/12 09:44:34;;;;;;;25.00;10.20;;;;;;;4.62;86.58;101026.31;1511546;92;21283;-78
2020/12/12 09:47:09;;;;;;;24.43;9.67;;;;;;;4.64;86.47;101024.21;1526012;92;21730;-78
2020/12/12 09:49:50;;;;;;;30.43;10.87;;;;;;;4.62;86.25;101031.29;1523769;92;21277;-78
2020/12/12 09:52:39;;;;;;;23.60;10.27;;;;;;;4.63;86.34;101018.38;1521809;93;21264;-77
2020/12/12 09:55:12;;;;;;;27.73;10.83;;;;;;;4.63;86.44;101021.98;1595605;88;21265;-74
2020/12/12 09:57:52;;;;;;;34.23;11.20;;;;;;;4.65;86.46;101026.72;1592979;88;21249;-76
2020/12/12 10:00:28;;;;;;;27.13;9.73;;;;;;;4.69;86.43;101021.12;1572510;89;21342;-76
2020/12/12 10:03:08;;;;;;;28.87;9.57;;;;;;;4.72;86.28;101016.58;1589207;88;21253;-76
2020/12/12 10:05:47;;;;;;;32.95;11.68;;;;;;;4.72;86.24;101006.10;1605982;87;22489;-77
2020/12/12 10:08:33;;;;;;;34.03;11.80;;;;;;;4.72;86.30;101005.59;1562648;90;21282;-78
2020/12/12 10:11:08;;;;;;;30.00;10.60;;;;;;;4.75;86.33;101016.66;1601840;88;21245;-76
2020/12/12 10:13:53;;;;;;;27.03;9.87;;;;;;;4.79;86.27;101022.91;1601694;89;21234;-76
2020/12/12 10:16:43;;;;;;;30.53;11.33;;;;;;;4.81;86.15;101019.41;1585922;88;21226;-78
2020/12/12 10:20:01;;;;;;;29.67;11.47;;;;;;;4.83;86.09;101001.32;1667684;84;21269;-77
2020/12/12 10:22:51;;;;;;;29.10;11.75;;;;;;;4.82;86.15;101005.13;1686147;84;21901;-79
2020/12/12 10:25:26;;;;;;;26.33;10.67;;;;;;;4.87;86.28;101013.55;1675242;84;21402;-74
2020/12/12 10:28:00;;;;;;;27.77;9.88;;;;;;;4.89;86.10;101008.16;1683210;84;21233;-73
2020/12/12 10:30:36;;;;;;;26.23;10.53;;;;;;;4.94;86.02;101008.91;1685143;83;21360;-74
2020/12/12 10:33:09;;;;;;;24.75;9.63;;;;;;;4.95;85.92;101013.34;1675017;84;21214;-79
2020/12/12 10:35:42;;;;;;;20.80;9.28;;;;;;;4.90;85.85;101019.47;1670402;84;21195;-78
2020/12/12 10:38:15;;;;;;;25.30;8.57;;;;;;;4.79;85.81;101010.53;1660017;85;21220;-78
2020/12/12 10:40:59;;;;;;;21.68;8.85;;;;;;;4.68;85.97;100999.33;1668661;85;21276;-78
2020/12/12 10:43:24;;;;;;;32.08;14.87;;;;;;;4.61;86.35;100995.76;1666732;84;21218;-78
2020/12/12 10:45:57;;;;;;;29.75;11.80;;;;;;;4.44;86.75;101000.86;1686643;84;21395;-79
2020/12/12 10:48:30;;;;;;;22.35;10.75;;;;;;;4.44;86.75;101000.86;1682804;84;21363;-78
2020/12/12 10:51:03;;;;;;;25.25;9.73;;;;;;;4.43;87.04;101012.92;1684422;84;21343;-79
2020/12/12 10:53:35;;;;;;;23.97;10.87;;;;;;;4.49;87.22;100996.09;1664154;85;21425;-78
2020/12/12 10:56:09;;;;;;;26.05;10.30;;;;;;;4.54;87.26;101012.28;1669277;85;21423;-79
2020/12/12 10:58:41;;;;;;;19.65;8.70;;;;;;;4.62;87.31;101013.94;1672758;84;21709;-78
2020/12/12 11:01:14;;;;;;;20.13;8.13;;;;;;;4.66;87.13;101008.34;1684609;84;21412;-80
2020/12/12 11:03:47;;;;;;;18.73;7.53;;;;;;;4.68;86.87;101003.45;1661352;85;21401;-79
2020/12/12 11:06:20;;;;;;;19.90;8.25;;;;;;;4.65;86.75;100995.66;1681032;83;21304;-79
2020/12/12 11:08:52;;;;;;;13.60;6.95;;;;;;;4.60;86.72;100988.06;1661808;85;21736;-79
2020/12/12 11:11:25;;;;;;;13.40;6.05;;;;;;;4.59;86.84;101002.02;1646155;85;21407;-80
2020/12/12 11:14:03;;;;;;;13.70;5.63;;;;;;;4.59;86.92;101005.58;1685865;83;21227;-74
2020/12/12 11:16:36;;;;;;;14.58;7.35;;;;;;;4.64;87.07;101003.59;1684486;84;21332;-83
2020/12/12 11:19:09;;;;;;;;;;;;;;;4.71;87.08;101009.91;1681455;83;21321;-81
2020/12/12 11:21:42;;;;;;;14.03;6.37;;;;;;;4.81;87.13;101008.92;1669607;84;20200;-75
2020/12/12 11:24:15;;;;;;;13.80;6.03;;;;;;;4.85;86.97;101026.69;1705829;84;21975;-79
2020/12/12 11:26:48;;;;;;;12.98;6.25;;;;;;;4.90;86.84;101013.14;1667799;85;21451;-78
2020/12/12 11:29:21;;;;;;;13.63;7.33;;;;;;;4.98;86.83;101012.89;1663898;84;21250;-79
2020/12/12 11:31:54;;;;;;;17.32;7.75;;;;;;;5.02;86.75;101019.67;1649000;85;21924;-76
2020/12/12 11:40:12;;;;;;;14.07;7.53;;;;;;;5.04;86.29;101020.28;1671642;84;21275;-78
2020/12/12 11:45:34;;;;;;;19.13;8.87;;;;;;;5.14;86.44;101017.93;1675073;83;21226;-80
2020/12/12 11:47:44;;;;;;;19.53;6.93;;;;;;;5.18;86.29;101021.40;1676913;84;21331;-78
2020/12/12 11:50:17;;;;;;;16.67;7.67;;;;;;;5.16;85.87;101018.03;1675755;85;21215;-80
2020/12/12 11:52:54;;;;;;;17.62;7.95;;;;;;;5.11;85.71;101024.71;1663633;84;21427;-79
2020/12/12 11:55:25;;;;;;;19.37;8.40;;;;;;;5.07;85.86;101022.62;1669814;85;21221;-80
2020/12/12 11:57:58;;;;;;;20.30;8.63;;;;;;;5.04;85.98;101023.89;1685525;84;21353;-80
2020/12/12 12:00:30;;;;;;;16.12;7.83;;;;;;;5.08;86.04;101016.87;1671418;84;21789;-83
2020/12/12 12:03:05;;;;;;;16.90;9.03;;;;;;;5.05;85.95;101020.59;1687178;83;21356;-77
2020/12/12 12:05:49;;;;;;;19.25;10.10;;;;;;;5.04;86.13;101029.91;1674036;84;21386;-79
2020/12/12 12:08:46;;;;;;;21.42;10.08;;;;;;;5.11;86.25;101027.98;1675009;83;21180;-78
2020/12/12 12:11:28;;;;;;;20.48;9.13;;;;;;;5.17;86.26;101020.23;1679996;84;21181;-79
2020/12/12 12:13:30;;;;;;;19.17;8.03;;;;;;;5.17;86.07;101020.23;1679656;84;21261;-79
2020/12/12 12:16:07;;;;;;;14.95;8.30;;;;;;;5.17;86.06;101029.86;1680292;84;21213;-79
2020/12/12 12:18:40;;;;;;;15.73;8.47;;;;;;;5.22;86.17;101020.43;1684628;83;21395;-77
2020/12/12 12:21:13;;;;;;;17.98;8.95;;;;;;;5.27;86.08;101024.75;1680710;84;21266;-78
2020/12/12 12:23:47;;;;;;;19.70;7.58;;;;;;;5.23;85.83;101021.59;1676115;84;21394;-77